sensor_id;sensor_type;location;lat;lon;timestamp;temperature;humidity
3350;DHT22;1688;51.000;13.684;2022-09-09T00:01:36;17.30;99.90
3350;DHT22;1688;51.000;13.684;2022-09-09T00:04:13;17.30;99.90
3350;DHT22;1688;51.000;13.684;2022-09-09T00:09:21;17.30;99.90
3350;DHT22;1688;51.000;13.684;2022-09-09T00:12:10;17.30;99.90
3350;DHT22;1688;51.000;13.684;2022-09-09T00:14:53;17.40;99.90
3350;DHT22;1688;51.000;13.684;2022-09-09T00:17:38;17.30;99.90
3350;DHT22;1688;51.000;13.684;2022-09-09T00:20:24;17.30;99.90
3350;DHT22;1688;51.000;13.684;2022-09-09T00:23:09;17.30;99.90
3350;DHT22;1688;51.000;13.684;2022-09-09T00:28:20;17.30;99.90
3350;DHT22;1688;51.000;13.684;2022-09-09T00:30:46;17.30;99.90
3350;DHT22;1688;51.000;13.684;2022-09-09T00:33:22;17.30;99.90
3350;DHT22;1688;51.000;13.684;2022-09-09T00:35:51;17.30;99.90
3350;DHT22;1688;51.000;13.684;2022-09-09T00:38:28;17.40;99.90
3350;DHT22;1688;51.000;13.684;2022-09-09T00:43:39;17.40;99.90
3350;DHT22;1688;51.000;13.684;2022-09-09T00:46:25;17.40;99.90
3350;DHT22;1688;51.000;13.684;2022-09-09T00:54:37;17.30;99.90
3350;DHT22;1688;51.000;13.684;2022-09-09T01:03:11;17.20;99.90
3350;DHT22;1688;51.000;13.684;2022-09-09T01:05:45;17.20;99.90
3350;DHT22;1688;51.000;13.684;2022-09-09T01:10:58;17.20;99.90
3350;DHT22;1688;51.000;13.684;2022-09-09T01:13:30;17.20;99.90
3350;DHT22;1688;51.000;13.684;2022-09-09T01:16:03;17.10;99.90
3350;DHT22;1688;51.000;13.684;2022-09-09T01:18:33;17.20;99.90
3350;DHT22;1688;51.000;13.684;2022-09-09T01:21:26;17.20;99.90
3350;DHT22;1688;51.000;13.684;2022-09-09T01:24:08;17.20;99.90
3350;DHT22;1688;51.000;13.684;2022-09-09T01:26:43;17.20;99.90
3350;DHT22;1688;51.000;13.684;2022-09-09T01:29:13;17.20;99.90
3350;DHT22;1688;51.000;13.684;2022-09-09T01:31:56;17.20;99.90
3350;DHT22;1688;51.000;13.684;2022-09-09T01:34:25;17.20;99.90
3350;DHT22;1688;51.000;13.684;2022-09-09T01:37:00;17.20;99.90
3350;DHT22;1688;51.000;13.684;2022-09-09T01:39:27;17.20;99.90
3350;DHT22;1688;51.000;13.684;2022-09-09T01:41:55;17.00;99.90
3350;DHT22;1688;51.000;13.684;2022-09-09T01:44:21;17.10;99.90
3350;DHT22;1688;51.000;13.684;2022-09-09T01:46:47;17.10;99.90
3350;DHT22;1688;51.000;13.684;2022-09-09T01:49:14;17.10;99.90
3350;DHT22;1688;51.000;13.684;2022-09-09T01:51:41;17.10;99.90
3350;DHT22;1688;51.000;13.684;2022-09-09T01:54:07;17.10;99.90
3350;DHT22;1688;51.000;13.684;2022-09-09T01:56:41;17.00;99.90
3350;DHT22;1688;51.000;13.684;2022-09-09T01:59:31;17.10;99.90
3350;DHT22;1688;51.000;13.684;2022-09-09T02:04:49;17.10;99.90
3350;DHT22;1688;51.000;13.684;2022-09-09T02:10:21;17.10;99.90
3350;DHT22;1688;51.000;13.684;2022-09-09T02:13:00;17.10;99.90
3350;DHT22;1688;51.000;13.684;2022-09-09T02:15:35;17.10;99.90
3350;DHT22;1688;51.000;13.684;2022-09-09T02:18:08;17.10;99.90
3350;DHT22;1688;51.000;13.684;2022-09-09T02:20:36;17.20;99.90
3350;DHT22;1688;51.000;13.684;2022-09-09T02:23:04;17.20;99.90
3350;DHT22;1688;51.000;13.684;2022-09-09T02:25:30;17.20;99.90
3350;DHT22;1688;51.000;13.684;2022-09-09T02:27:57;17.20;99.90
3350;DHT22;1688;51.000;13.684;2022-09-09T02:30:27;17.30;99.90
3350;DHT22;1688;51.000;13.684;2022-09-09T02:32:56;17.30;99.90
3350;DHT22;1688;51.000;13.684;2022-09-09T02:35:24;17.30;99.90
3350;DHT22;1688;51.000;13.684;2022-09-09T02:37:53;17.30;99.90
3350;DHT22;1688;51.000;13.684;2022-09-09T02:40:20;17.30;99.90
3350;DHT22;1688;51.000;13.684;2022-09-09T02:42:48;17.30;99.90
3350;DHT22;1688;51.000;13.684;2022-09-09T02:45:16;17.30;99.90
3350;DHT22;1688;51.000;13.684;2022-09-09T02:50:35;17.30;99.90
3350;DHT22;1688;51.000;13.684;2022-09-09T02:53:21;17.30;99.90
3350;DHT22;1688;51.000;13.684;2022-09-09T02:56:22;17.30;99.90
3350;DHT22;1688;51.000;13.684;2022-09-09T02:58:41;17.20;99.90
3350;DHT22;1688;51.000;13.684;2022-09-09T03:01:07;17.30;99.90
3350;DHT22;1688;51.000;13.684;2022-09-09T03:03:35;17.30;99.90
3350;DHT22;1688;51.000;13.684;2022-09-09T03:06:03;17.30;99.90
3350;DHT22;1688;51.000;13.684;2022-09-09T03:08:29;17.30;99.90
3350;DHT22;1688;51.000;13.684;2022-09-09T03:10:55;17.30;99.90
3350;DHT22;1688;51.000;13.684;2022-09-09T03:13:21;17.30;99.90
3350;DHT22;1688;51.000;13.684;2022-09-09T03:15:49;17.20;99.90
3350;DHT22;1688;51.000;13.684;2022-09-09T03:18:14;17.30;99.90
3350;DHT22;1688;51.000;13.684;2022-09-09T03:20:43;17.30;99.90
3350;DHT22;1688;51.000;13.684;2022-09-09T03:23:09;17.20;99.90
3350;DHT22;1688;51.000;13.684;2022-09-09T03:25:35;17.20;99.90
3350;DHT22;1688;51.000;13.684;2022-09-09T03:28:01;17.20;99.90
3350;DHT22;1688;51.000;13.684;2022-09-09T03:30:27;17.20;99.90
3350;DHT22;1688;51.000;13.684;2022-09-09T03:32:54;17.20;99.90
3350;DHT22;1688;51.000;13.684;2022-09-09T03:35:20;17.10;99.90
3350;DHT22;1688;51.000;13.684;2022-09-09T03:37:46;17.10;99.90
3350;DHT22;1688;51.000;13.684;2022-09-09T03:40:13;17.10;99.90
3350;DHT22;1688;51.000;13.684;2022-09-09T03:42:39;17.10;99.90
3350;DHT22;1688;51.000;13.684;2022-09-09T03:45:07;17.10;99.90
3350;DHT22;1688;51.000;13.684;2022-09-09T03:47:35;17.00;99.90
3350;DHT22;1688;51.000;13.684;2022-09-09T03:50:01;17.00;99.90
3350;DHT22;1688;51.000;13.684;2022-09-09T03:52:27;17.00;99.90
3350;DHT22;1688;51.000;13.684;2022-09-09T03:54:53;16.90;99.90
3350;DHT22;1688;51.000;13.684;2022-09-09T03:57:20;16.90;99.90
3350;DHT22;1688;51.000;13.684;2022-09-09T03:59:46;16.90;99.90
3350;DHT22;1688;51.000;13.684;2022-09-09T04:02:11;16.90;99.90
3350;DHT22;1688;51.000;13.684;2022-09-09T04:04:37;16.90;99.90
3350;DHT22;1688;51.000;13.684;2022-09-09T04:07:03;16.90;99.90
3350;DHT22;1688;51.000;13.684;2022-09-09T04:09:31;16.90;99.90
3350;DHT22;1688;51.000;13.684;2022-09-09T04:11:57;16.90;99.90
3350;DHT22;1688;51.000;13.684;2022-09-09T04:14:23;16.80;99.90
3350;DHT22;1688;51.000;13.684;2022-09-09T04:16:48;16.90;99.90
3350;DHT22;1688;51.000;13.684;2022-09-09T04:19:14;16.90;99.90
3350;DHT22;1688;51.000;13.684;2022-09-09T04:21:41;16.90;99.90
3350;DHT22;1688;51.000;13.684;2022-09-09T04:24:08;16.90;99.90
3350;DHT22;1688;51.000;13.684;2022-09-09T04:26:34;16.90;99.90
3350;DHT22;1688;51.000;13.684;2022-09-09T04:29:05;16.90;99.90
3350;DHT22;1688;51.000;13.684;2022-09-09T04:31:32;17.00;99.90
3350;DHT22;1688;51.000;13.684;2022-09-09T04:33:59;17.00;99.90
3350;DHT22;1688;51.000;13.684;2022-09-09T04:36:31;17.00;99.90
3350;DHT22;1688;51.000;13.684;2022-09-09T04:38:57;17.00;99.90
3350;DHT22;1688;51.000;13.684;2022-09-09T04:41:23;17.10;99.90
3350;DHT22;1688;51.000;13.684;2022-09-09T04:43:49;17.10;99.90
3350;DHT22;1688;51.000;13.684;2022-09-09T04:46:15;17.10;99.90
3350;DHT22;1688;51.000;13.684;2022-09-09T04:48:43;17.10;99.90
3350;DHT22;1688;51.000;13.684;2022-09-09T04:51:13;17.10;99.90
3350;DHT22;1688;51.000;13.684;2022-09-09T04:53:39;17.00;99.90
3350;DHT22;1688;51.000;13.684;2022-09-09T04:56:11;17.00;99.90
3350;DHT22;1688;51.000;13.684;2022-09-09T04:58:38;17.00;99.90
3350;DHT22;1688;51.000;13.684;2022-09-09T05:01:13;17.00;99.90
3350;DHT22;1688;51.000;13.684;2022-09-09T05:03:40;17.00;99.90
3350;DHT22;1688;51.000;13.684;2022-09-09T05:06:06;17.10;99.90
3350;DHT22;1688;51.000;13.684;2022-09-09T05:08:40;17.10;99.90
3350;DHT22;1688;51.000;13.684;2022-09-09T05:11:16;17.10;99.90
3350;DHT22;1688;51.000;13.684;2022-09-09T05:13:42;17.20;99.90
3350;DHT22;1688;51.000;13.684;2022-09-09T05:16:09;17.20;99.90
3350;DHT22;1688;51.000;13.684;2022-09-09T05:18:39;17.20;99.90
3350;DHT22;1688;51.000;13.684;2022-09-09T05:21:07;17.30;99.90
3350;DHT22;1688;51.000;13.684;2022-09-09T05:23:33;17.40;99.90
3350;DHT22;1688;51.000;13.684;2022-09-09T05:26:00;17.40;99.90
3350;DHT22;1688;51.000;13.684;2022-09-09T05:28:27;17.40;99.90
3350;DHT22;1688;51.000;13.684;2022-09-09T05:31:04;17.40;99.90
3350;DHT22;1688;51.000;13.684;2022-09-09T05:33:31;17.50;99.90
3350;DHT22;1688;51.000;13.684;2022-09-09T05:36:04;17.60;99.90
3350;DHT22;1688;51.000;13.684;2022-09-09T05:38:34;17.60;99.90
3350;DHT22;1688;51.000;13.684;2022-09-09T05:41:00;17.60;99.90
3350;DHT22;1688;51.000;13.684;2022-09-09T05:43:26;17.70;99.90
3350;DHT22;1688;51.000;13.684;2022-09-09T05:46:19;17.80;99.90
3350;DHT22;1688;51.000;13.684;2022-09-09T05:48:47;17.80;99.90
3350;DHT22;1688;51.000;13.684;2022-09-09T05:51:15;17.90;99.90
3350;DHT22;1688;51.000;13.684;2022-09-09T05:53:42;17.90;99.90
3350;DHT22;1688;51.000;13.684;2022-09-09T05:56:10;17.90;99.90
3350;DHT22;1688;51.000;13.684;2022-09-09T05:58:37;18.00;99.90
3350;DHT22;1688;51.000;13.684;2022-09-09T06:01:12;18.00;99.90
3350;DHT22;1688;51.000;13.684;2022-09-09T06:03:40;18.10;99.90
3350;DHT22;1688;51.000;13.684;2022-09-09T06:06:13;18.20;99.90
3350;DHT22;1688;51.000;13.684;2022-09-09T06:08:43;18.20;99.90
3350;DHT22;1688;51.000;13.684;2022-09-09T06:11:20;18.20;99.90
3350;DHT22;1688;51.000;13.684;2022-09-09T06:13:47;18.20;99.90
3350;DHT22;1688;51.000;13.684;2022-09-09T06:16:18;18.40;99.90
3350;DHT22;1688;51.000;13.684;2022-09-09T06:18:44;18.40;99.90
3350;DHT22;1688;51.000;13.684;2022-09-09T06:21:19;18.50;99.90
3350;DHT22;1688;51.000;13.684;2022-09-09T06:23:46;18.60;99.90
3350;DHT22;1688;51.000;13.684;2022-09-09T06:26:15;18.60;99.90
3350;DHT22;1688;51.000;13.684;2022-09-09T06:28:45;18.70;99.90
3350;DHT22;1688;51.000;13.684;2022-09-09T06:31:13;18.80;99.90
3350;DHT22;1688;51.000;13.684;2022-09-09T06:33:42;18.80;99.90
3350;DHT22;1688;51.000;13.684;2022-09-09T06:36:12;18.80;99.90
3350;DHT22;1688;51.000;13.684;2022-09-09T06:41:14;18.90;99.90
3350;DHT22;1688;51.000;13.684;2022-09-09T06:43:40;19.00;99.90
3350;DHT22;1688;51.000;13.684;2022-09-09T06:46:20;19.00;99.90
3350;DHT22;1688;51.000;13.684;2022-09-09T06:48:48;19.10;99.90
3350;DHT22;1688;51.000;13.684;2022-09-09T06:51:19;19.30;99.90
3350;DHT22;1688;51.000;13.684;2022-09-09T06:53:50;19.50;99.90
3350;DHT22;1688;51.000;13.684;2022-09-09T06:56:21;19.50;99.90
3350;DHT22;1688;51.000;13.684;2022-09-09T06:58:50;19.50;99.90
3350;DHT22;1688;51.000;13.684;2022-09-09T07:01:18;19.80;99.90
3350;DHT22;1688;51.000;13.684;2022-09-09T07:03:49;20.30;99.90
3350;DHT22;1688;51.000;13.684;2022-09-09T07:06:23;21.90;99.90
3350;DHT22;1688;51.000;13.684;2022-09-09T07:08:54;24.70;99.90
3350;DHT22;1688;51.000;13.684;2022-09-09T07:11:21;27.60;97.20
3350;DHT22;1688;51.000;13.684;2022-09-09T07:13:48;28.80;91.20
3350;DHT22;1688;51.000;13.684;2022-09-09T07:16:19;27.80;90.10
3350;DHT22;1688;51.000;13.684;2022-09-09T07:18:46;27.10;90.80
3350;DHT22;1688;51.000;13.684;2022-09-09T07:21:14;27.70;92.20
3350;DHT22;1688;51.000;13.684;2022-09-09T07:23:40;29.80;91.20
3350;DHT22;1688;51.000;13.684;2022-09-09T07:26:10;30.50;82.80
3350;DHT22;1688;51.000;13.684;2022-09-09T07:28:37;29.90;82.40
3350;DHT22;1688;51.000;13.684;2022-09-09T07:31:06;29.10;81.80
3350;DHT22;1688;51.000;13.684;2022-09-09T07:33:33;28.20;83.80
3350;DHT22;1688;51.000;13.684;2022-09-09T07:36:08;27.60;86.70
3350;DHT22;1688;51.000;13.684;2022-09-09T07:38:40;27.00;88.60
3350;DHT22;1688;51.000;13.684;2022-09-09T07:41:08;26.50;90.90
3350;DHT22;1688;51.000;13.684;2022-09-09T07:43:41;26.30;92.00
3350;DHT22;1688;51.000;13.684;2022-09-09T07:46:09;26.00;91.60
3350;DHT22;1688;51.000;13.684;2022-09-09T07:48:35;25.70;92.20
3350;DHT22;1688;51.000;13.684;2022-09-09T07:53:31;25.10;93.30
3350;DHT22;1688;51.000;13.684;2022-09-09T07:56:06;25.00;95.00
3350;DHT22;1688;51.000;13.684;2022-09-09T07:58:33;24.80;94.80
3350;DHT22;1688;51.000;13.684;2022-09-09T08:00:59;24.70;95.00
3350;DHT22;1688;51.000;13.684;2022-09-09T08:03:25;24.50;94.80
3350;DHT22;1688;51.000;13.684;2022-09-09T08:05:51;24.30;95.00
3350;DHT22;1688;51.000;13.684;2022-09-09T08:08:17;24.00;96.10
3350;DHT22;1688;51.000;13.684;2022-09-09T08:10:43;23.90;96.90
3350;DHT22;1688;51.000;13.684;2022-09-09T08:13:09;23.60;96.80
3350;DHT22;1688;51.000;13.684;2022-09-09T08:15:35;23.20;97.40
3350;DHT22;1688;51.000;13.684;2022-09-09T08:18:01;22.80;97.90
3350;DHT22;1688;51.000;13.684;2022-09-09T08:20:28;22.50;98.80
3350;DHT22;1688;51.000;13.684;2022-09-09T08:22:55;22.40;99.60
3350;DHT22;1688;51.000;13.684;2022-09-09T08:25:21;22.40;99.90
3350;DHT22;1688;51.000;13.684;2022-09-09T08:27:46;22.50;99.90
3350;DHT22;1688;51.000;13.684;2022-09-09T08:30:12;22.60;99.90
3350;DHT22;1688;51.000;13.684;2022-09-09T08:32:39;22.70;99.40
3350;DHT22;1688;51.000;13.684;2022-09-09T08:35:05;22.70;99.90
3350;DHT22;1688;51.000;13.684;2022-09-09T08:37:31;23.00;99.90
3350;DHT22;1688;51.000;13.684;2022-09-09T08:39:59;23.10;99.90
3350;DHT22;1688;51.000;13.684;2022-09-09T08:42:44;23.20;99.20
3350;DHT22;1688;51.000;13.684;2022-09-09T08:45:23;23.30;98.70
3350;DHT22;1688;51.000;13.684;2022-09-09T08:56:02;23.30;99.20
3350;DHT22;1688;51.000;13.684;2022-09-09T08:58:33;23.30;98.60
3350;DHT22;1688;51.000;13.684;2022-09-09T09:01:29;23.10;99.30
3350;DHT22;1688;51.000;13.684;2022-09-09T09:12:27;22.70;99.90
3350;DHT22;1688;51.000;13.684;2022-09-09T09:14:55;22.60;99.60
3350;DHT22;1688;51.000;13.684;2022-09-09T09:17:25;22.30;99.90
3350;DHT22;1688;51.000;13.684;2022-09-09T09:19:52;22.10;99.90
3350;DHT22;1688;51.000;13.684;2022-09-09T09:22:46;21.70;99.90
3350;DHT22;1688;51.000;13.684;2022-09-09T09:25:23;21.30;99.90
3350;DHT22;1688;51.000;13.684;2022-09-09T09:28:07;21.00;99.90
3350;DHT22;1688;51.000;13.684;2022-09-09T09:30:42;20.80;99.90
3350;DHT22;1688;51.000;13.684;2022-09-09T09:35:49;20.70;99.90
3350;DHT22;1688;51.000;13.684;2022-09-09T09:38:21;20.80;99.90
3350;DHT22;1688;51.000;13.684;2022-09-09T09:40:56;21.00;99.90
3350;DHT22;1688;51.000;13.684;2022-09-09T09:43:31;21.20;99.90
3350;DHT22;1688;51.000;13.684;2022-09-09T09:45:58;21.50;99.90
3350;DHT22;1688;51.000;13.684;2022-09-09T09:48:25;21.80;99.90
3350;DHT22;1688;51.000;13.684;2022-09-09T09:53:27;22.20;99.90
3350;DHT22;1688;51.000;13.684;2022-09-09T09:55:56;22.40;99.90
3350;DHT22;1688;51.000;13.684;2022-09-09T09:58:24;22.70;99.90
3350;DHT22;1688;51.000;13.684;2022-09-09T10:00:52;23.10;99.90
3350;DHT22;1688;51.000;13.684;2022-09-09T10:05:53;24.10;99.90
3350;DHT22;1688;51.000;13.684;2022-09-09T10:08:20;24.70;99.90
3350;DHT22;1688;51.000;13.684;2022-09-09T10:11:09;25.60;99.90
3350;DHT22;1688;51.000;13.684;2022-09-09T10:13:48;26.40;96.80
3350;DHT22;1688;51.000;13.684;2022-09-09T10:19:10;27.20;96.60
3350;DHT22;1688;51.000;13.684;2022-09-09T10:30:31;26.70;96.20
3350;DHT22;1688;51.000;13.684;2022-09-09T10:35:59;26.60;97.20
3350;DHT22;1688;51.000;13.684;2022-09-09T10:57:28;26.60;95.30
3350;DHT22;1688;51.000;13.684;2022-09-09T11:00:04;26.20;96.10
3350;DHT22;1688;51.000;13.684;2022-09-09T11:02:33;26.20;97.60
3350;DHT22;1688;51.000;13.684;2022-09-09T11:05:20;26.10;96.70
3350;DHT22;1688;51.000;13.684;2022-09-09T11:07:55;25.90;95.20
3350;DHT22;1688;51.000;13.684;2022-09-09T11:16:25;24.90;97.00
3350;DHT22;1688;51.000;13.684;2022-09-09T11:19:04;24.50;97.80
3350;DHT22;1688;51.000;13.684;2022-09-09T11:21:44;24.20;97.80
3350;DHT22;1688;51.000;13.684;2022-09-09T11:24:26;24.10;98.90
3350;DHT22;1688;51.000;13.684;2022-09-09T11:32:39;23.90;98.00
3350;DHT22;1688;51.000;13.684;2022-09-09T11:40:36;24.30;98.30
3350;DHT22;1688;51.000;13.684;2022-09-09T11:45:41;24.30;98.90
3350;DHT22;1688;51.000;13.684;2022-09-09T11:49:00;24.00;99.90
3350;DHT22;1688;51.000;13.684;2022-09-09T11:51:30;23.80;99.90
3350;DHT22;1688;51.000;13.684;2022-09-09T11:53:57;23.60;99.90
3350;DHT22;1688;51.000;13.684;2022-09-09T11:56:29;23.50;99.90
3350;DHT22;1688;51.000;13.684;2022-09-09T12:01:34;24.10;99.90
3350;DHT22;1688;51.000;13.684;2022-09-09T12:04:14;24.40;99.90
3350;DHT22;1688;51.000;13.684;2022-09-09T12:06:53;24.70;99.90
3350;DHT22;1688;51.000;13.684;2022-09-09T12:12:28;25.10;99.90
3350;DHT22;1688;51.000;13.684;2022-09-09T12:14:56;25.20;99.90
3350;DHT22;1688;51.000;13.684;2022-09-09T12:17:24;25.30;99.90
3350;DHT22;1688;51.000;13.684;2022-09-09T12:20:16;25.20;99.90
3350;DHT22;1688;51.000;13.684;2022-09-09T12:23:27;24.80;99.90
3350;DHT22;1688;51.000;13.684;2022-09-09T12:36:57;22.60;99.90
3350;DHT22;1688;51.000;13.684;2022-09-09T12:39:35;22.50;99.90
3350;DHT22;1688;51.000;13.684;2022-09-09T12:42:02;22.80;99.90
3350;DHT22;1688;51.000;13.684;2022-09-09T12:44:30;22.90;99.90
3350;DHT22;1688;51.000;13.684;2022-09-09T12:47:01;22.70;99.90
3350;DHT22;1688;51.000;13.684;2022-09-09T12:49:32;22.70;99.90
3350;DHT22;1688;51.000;13.684;2022-09-09T12:54:50;22.80;99.90
3350;DHT22;1688;51.000;13.684;2022-09-09T12:57:21;23.00;99.90
3350;DHT22;1688;51.000;13.684;2022-09-09T12:59:48;23.00;99.90
3350;DHT22;1688;51.000;13.684;2022-09-09T13:02:26;23.10;99.90
3350;DHT22;1688;51.000;13.684;2022-09-09T13:04:53;23.40;99.90
3350;DHT22;1688;51.000;13.684;2022-09-09T13:07:21;23.90;99.90
3350;DHT22;1688;51.000;13.684;2022-09-09T13:09:48;24.50;99.90
3350;DHT22;1688;51.000;13.684;2022-09-09T13:12:22;24.80;99.10
3350;DHT22;1688;51.000;13.684;2022-09-09T13:14:52;25.10;98.20
3350;DHT22;1688;51.000;13.684;2022-09-09T13:17:22;25.40;96.70
3350;DHT22;1688;51.000;13.684;2022-09-09T13:19:50;25.70;99.90
3350;DHT22;1688;51.000;13.684;2022-09-09T13:22:31;26.20;99.50
3350;DHT22;1688;51.000;13.684;2022-09-09T13:25:18;26.30;96.20
3350;DHT22;1688;51.000;13.684;2022-09-09T13:28:03;26.40;95.40
3350;DHT22;1688;51.000;13.684;2022-09-09T13:36:08;26.10;92.60
3350;DHT22;1688;51.000;13.684;2022-09-09T13:41:34;26.10;93.10
3350;DHT22;1688;51.000;13.684;2022-09-09T13:44:04;25.90;92.30
3350;DHT22;1688;51.000;13.684;2022-09-09T13:46:44;25.80;92.70
3350;DHT22;1688;51.000;13.684;2022-09-09T13:51:42;25.70;92.50
3350;DHT22;1688;51.000;13.684;2022-09-09T13:54:12;25.70;92.70
3350;DHT22;1688;51.000;13.684;2022-09-09T13:56:39;25.70;93.00
3350;DHT22;1688;51.000;13.684;2022-09-09T13:59:13;25.70;93.50
3350;DHT22;1688;51.000;13.684;2022-09-09T14:01:40;25.70;93.10
3350;DHT22;1688;51.000;13.684;2022-09-09T14:04:07;25.60;92.50
3350;DHT22;1688;51.000;13.684;2022-09-09T14:06:35;25.50;92.40
3350;DHT22;1688;51.000;13.684;2022-09-09T14:09:06;25.40;92.20
3350;DHT22;1688;51.000;13.684;2022-09-09T14:11:32;25.30;92.50
3350;DHT22;1688;51.000;13.684;2022-09-09T14:13:58;25.20;92.50
3350;DHT22;1688;51.000;13.684;2022-09-09T14:16:26;25.20;92.70
3350;DHT22;1688;51.000;13.684;2022-09-09T14:18:53;25.20;92.90
3350;DHT22;1688;51.000;13.684;2022-09-09T14:21:21;25.10;92.90
3350;DHT22;1688;51.000;13.684;2022-09-09T14:23:47;25.10;93.10
3350;DHT22;1688;51.000;13.684;2022-09-09T14:26:14;25.10;93.10
3350;DHT22;1688;51.000;13.684;2022-09-09T14:28:43;25.00;92.70
3350;DHT22;1688;51.000;13.684;2022-09-09T14:31:09;24.90;93.00
3350;DHT22;1688;51.000;13.684;2022-09-09T14:33:37;25.00;94.30
3350;DHT22;1688;51.000;13.684;2022-09-09T14:36:03;25.10;94.10
3350;DHT22;1688;51.000;13.684;2022-09-09T14:38:31;25.20;94.70
3350;DHT22;1688;51.000;13.684;2022-09-09T14:40:59;25.30;94.60
3350;DHT22;1688;51.000;13.684;2022-09-09T14:43:26;25.30;94.50
3350;DHT22;1688;51.000;13.684;2022-09-09T14:45:55;25.20;94.10
3350;DHT22;1688;51.000;13.684;2022-09-09T14:48:21;25.20;94.40
3350;DHT22;1688;51.000;13.684;2022-09-09T14:50:47;25.20;94.10
3350;DHT22;1688;51.000;13.684;2022-09-09T14:53:16;25.20;94.20
3350;DHT22;1688;51.000;13.684;2022-09-09T14:55:42;25.20;94.50
3350;DHT22;1688;51.000;13.684;2022-09-09T14:58:09;25.10;94.10
3350;DHT22;1688;51.000;13.684;2022-09-09T15:00:35;25.00;94.20
3350;DHT22;1688;51.000;13.684;2022-09-09T15:03:01;24.90;93.70
3350;DHT22;1688;51.000;13.684;2022-09-09T15:05:27;24.90;94.60
3350;DHT22;1688;51.000;13.684;2022-09-09T15:07:53;24.80;94.20
3350;DHT22;1688;51.000;13.684;2022-09-09T15:10:19;24.70;94.40
3350;DHT22;1688;51.000;13.684;2022-09-09T15:12:45;24.60;94.80
3350;DHT22;1688;51.000;13.684;2022-09-09T15:15:11;24.60;94.70
3350;DHT22;1688;51.000;13.684;2022-09-09T15:17:38;24.50;95.60
3350;DHT22;1688;51.000;13.684;2022-09-09T15:20:04;24.50;96.00
3350;DHT22;1688;51.000;13.684;2022-09-09T15:22:32;24.50;95.10
3350;DHT22;1688;51.000;13.684;2022-09-09T15:24:58;24.50;95.40
3350;DHT22;1688;51.000;13.684;2022-09-09T15:27:23;24.50;95.40
3350;DHT22;1688;51.000;13.684;2022-09-09T15:29:50;24.60;94.90
3350;DHT22;1688;51.000;13.684;2022-09-09T15:32:17;24.50;94.60
3350;DHT22;1688;51.000;13.684;2022-09-09T15:34:43;24.60;94.80
3350;DHT22;1688;51.000;13.684;2022-09-09T15:37:13;24.60;95.10
3350;DHT22;1688;51.000;13.684;2022-09-09T15:39:39;24.50;94.80
3350;DHT22;1688;51.000;13.684;2022-09-09T15:42:06;24.50;95.10
3350;DHT22;1688;51.000;13.684;2022-09-09T15:44:41;24.50;95.40
3350;DHT22;1688;51.000;13.684;2022-09-09T15:47:13;24.40;95.50
3350;DHT22;1688;51.000;13.684;2022-09-09T15:49:39;24.40;95.30
3350;DHT22;1688;51.000;13.684;2022-09-09T15:52:10;24.30;96.00
3350;DHT22;1688;51.000;13.684;2022-09-09T15:54:37;24.30;96.40
3350;DHT22;1688;51.000;13.684;2022-09-09T15:57:09;24.30;96.60
3350;DHT22;1688;51.000;13.684;2022-09-09T15:59:37;24.30;96.50
3350;DHT22;1688;51.000;13.684;2022-09-09T16:02:03;24.30;96.80
3350;DHT22;1688;51.000;13.684;2022-09-09T16:04:29;24.20;97.60
3350;DHT22;1688;51.000;13.684;2022-09-09T16:06:57;24.10;98.50
3350;DHT22;1688;51.000;13.684;2022-09-09T16:09:27;24.10;99.00
3350;DHT22;1688;51.000;13.684;2022-09-09T16:11:59;24.00;99.30
3350;DHT22;1688;51.000;13.684;2022-09-09T16:14:32;23.80;98.90
3350;DHT22;1688;51.000;13.684;2022-09-09T16:17:04;23.70;99.30
3350;DHT22;1688;51.000;13.684;2022-09-09T16:19:31;23.70;99.40
3350;DHT22;1688;51.000;13.684;2022-09-09T16:21:57;23.60;99.40
3350;DHT22;1688;51.000;13.684;2022-09-09T16:24:24;23.50;99.30
3350;DHT22;1688;51.000;13.684;2022-09-09T16:26:52;23.50;98.90
3350;DHT22;1688;51.000;13.684;2022-09-09T16:29:19;23.40;98.70
3350;DHT22;1688;51.000;13.684;2022-09-09T16:31:46;23.40;98.40
3350;DHT22;1688;51.000;13.684;2022-09-09T16:34:13;23.30;98.90
3350;DHT22;1688;51.000;13.684;2022-09-09T16:36:41;23.30;98.80
3350;DHT22;1688;51.000;13.684;2022-09-09T16:39:14;23.30;99.00
3350;DHT22;1688;51.000;13.684;2022-09-09T16:41:41;23.20;98.50
3350;DHT22;1688;51.000;13.684;2022-09-09T16:44:10;23.20;98.70
3350;DHT22;1688;51.000;13.684;2022-09-09T16:46:39;23.20;99.10
3350;DHT22;1688;51.000;13.684;2022-09-09T16:49:07;23.20;99.30
3350;DHT22;1688;51.000;13.684;2022-09-09T16:51:42;23.30;99.20
3350;DHT22;1688;51.000;13.684;2022-09-09T16:54:10;23.30;99.30
3350;DHT22;1688;51.000;13.684;2022-09-09T16:56:38;23.30;99.30
3350;DHT22;1688;51.000;13.684;2022-09-09T16:59:13;23.30;98.90
3350;DHT22;1688;51.000;13.684;2022-09-09T17:01:41;23.30;98.70
3350;DHT22;1688;51.000;13.684;2022-09-09T17:04:10;23.30;98.80
3350;DHT22;1688;51.000;13.684;2022-09-09T17:06:37;23.30;98.90
3350;DHT22;1688;51.000;13.684;2022-09-09T17:09:09;23.20;98.80
3350;DHT22;1688;51.000;13.684;2022-09-09T17:11:36;23.20;98.90
3350;DHT22;1688;51.000;13.684;2022-09-09T17:14:02;23.20;98.80
3350;DHT22;1688;51.000;13.684;2022-09-09T17:16:31;23.10;98.80
3350;DHT22;1688;51.000;13.684;2022-09-09T17:18:57;23.00;98.80
3350;DHT22;1688;51.000;13.684;2022-09-09T17:21:27;23.00;98.70
3350;DHT22;1688;51.000;13.684;2022-09-09T17:23:55;22.90;98.20
3350;DHT22;1688;51.000;13.684;2022-09-09T17:26:23;22.80;98.10
3350;DHT22;1688;51.000;13.684;2022-09-09T17:28:49;22.60;97.70
3350;DHT22;1688;51.000;13.684;2022-09-09T17:31:17;22.60;98.00
3350;DHT22;1688;51.000;13.684;2022-09-09T17:33:48;22.50;97.90
3350;DHT22;1688;51.000;13.684;2022-09-09T17:36:22;22.40;97.90
3350;DHT22;1688;51.000;13.684;2022-09-09T17:38:49;22.40;97.80
3350;DHT22;1688;51.000;13.684;2022-09-09T17:41:23;22.30;97.30
3350;DHT22;1688;51.000;13.684;2022-09-09T17:43:50;22.10;96.90
3350;DHT22;1688;51.000;13.684;2022-09-09T17:46:24;21.90;96.40
3350;DHT22;1688;51.000;13.684;2022-09-09T17:48:55;21.80;95.90
3350;DHT22;1688;51.000;13.684;2022-09-09T17:51:23;21.70;96.10
3350;DHT22;1688;51.000;13.684;2022-09-09T17:53:55;21.60;95.90
3350;DHT22;1688;51.000;13.684;2022-09-09T17:56:22;21.50;96.00
3350;DHT22;1688;51.000;13.684;2022-09-09T17:58:49;21.40;96.10
3350;DHT22;1688;51.000;13.684;2022-09-09T18:01:18;21.30;96.00
3350;DHT22;1688;51.000;13.684;2022-09-09T18:03:45;21.30;96.20
3350;DHT22;1688;51.000;13.684;2022-09-09T18:06:14;21.20;96.70
3350;DHT22;1688;51.000;13.684;2022-09-09T18:08:42;21.10;96.80
3350;DHT22;1688;51.000;13.684;2022-09-09T18:11:11;21.20;96.90
3350;DHT22;1688;51.000;13.684;2022-09-09T18:13:37;21.20;97.00
3350;DHT22;1688;51.000;13.684;2022-09-09T18:16:07;21.10;97.00
3350;DHT22;1688;51.000;13.684;2022-09-09T18:18:33;21.10;97.10
3350;DHT22;1688;51.000;13.684;2022-09-09T18:21:01;21.10;96.70
3350;DHT22;1688;51.000;13.684;2022-09-09T18:23:29;21.10;96.90
3350;DHT22;1688;51.000;13.684;2022-09-09T18:25:55;21.10;96.80
3350;DHT22;1688;51.000;13.684;2022-09-09T18:28:25;21.10;96.90